TOM88F LIPX-EGKK
Flight info
| Callsign | TOM88F |
|---|---|
| Flight time | 1h 36m |
| Altitude | 18000 |
| Route | OTZOM Y480 UPXUF L612 ADOSA/N0450F360 DCT BORMI DCT RESIA DCT ELMUR DCT RIPUS DCT DITON DCT HOC DCT LUL DCT RLP DCT ROTSI DCT KOTUN DCT NINAL DCT KESAX DCT KUNAV |
| Aircraft | B738/M-SDE2E3FGHIRWXY/LB1 |
Departure
| Time | 2026-05-05 18:06 |
|---|---|
| Airport | Verona Villafranca Valerio Catullo Airport (LIPX) |
Arrival
| Time | 2026-05-05 19:43 |
|---|---|
| Airport | London Gatwick Airport (EGKK) |
| Time | Latitude | Longitude | Altitude | Speed | Heading |
|---|---|---|---|---|---|
| 2026-05-05 17:29 | 45.40240 | 10.90520 | 241 ft | 0 kts | 135° |
| 2026-05-05 17:57 | 45.40260 | 10.90493 | 241 ft | 4 kts | 136° |
| 2026-05-05 17:57 | 45.40277 | 10.90466 | 241 ft | 4 kts | 111° |
| 2026-05-05 17:57 | 45.40276 | 10.90443 | 241 ft | 3 kts | 44° |
| 2026-05-05 17:57 | 45.40263 | 10.90424 | 241 ft | 0 kts | 46° |
| 2026-05-05 17:59 | 45.40268 | 10.90425 | 241 ft | 1 kts | 1° |
| 2026-05-05 18:00 | 45.40273 | 10.90411 | 241 ft | 3 kts | 300° |
| 2026-05-05 18:00 | 45.40288 | 10.90377 | 241 ft | 9 kts | 304° |
| 2026-05-05 18:00 | 45.40329 | 10.90276 | 241 ft | 14 kts | 282° |
| 2026-05-05 18:00 | 45.40312 | 10.90125 | 243 ft | 17 kts | 255° |
| 2026-05-05 18:01 | 45.40301 | 10.89950 | 245 ft | 18 kts | 288° |
| 2026-05-05 18:01 | 45.40384 | 10.89812 | 247 ft | 20 kts | 314° |
| 2026-05-05 18:01 | 45.40374 | 10.89669 | 246 ft | 16 kts | 222° |
| 2026-05-05 18:01 | 45.40285 | 10.89546 | 245 ft | 19 kts | 214° |
| 2026-05-05 18:02 | 45.40184 | 10.89396 | 244 ft | 22 kts | 226° |
| 2026-05-05 18:02 | 45.40067 | 10.89220 | 242 ft | 26 kts | 232° |
| 2026-05-05 18:02 | 45.39934 | 10.89033 | 241 ft | 28 kts | 225° |
| 2026-05-05 18:02 | 45.39905 | 10.88990 | 240 ft | 29 kts | 226° |
| 2026-05-05 18:03 | 45.39810 | 10.88839 | 239 ft | 28 kts | 228° |
| 2026-05-05 18:03 | 45.39669 | 10.88640 | 238 ft | 27 kts | 230° |
| 2026-05-05 18:03 | 45.39540 | 10.88460 | 236 ft | 25 kts | 223° |
| 2026-05-05 18:03 | 45.39419 | 10.88290 | 235 ft | 23 kts | 227° |
| 2026-05-05 18:04 | 45.39308 | 10.88125 | 235 ft | 22 kts | 226° |
| 2026-05-05 18:04 | 45.39201 | 10.87967 | 232 ft | 22 kts | 226° |
| 2026-05-05 18:04 | 45.39096 | 10.87816 | 231 ft | 21 kts | 227° |
| 2026-05-05 18:04 | 45.38989 | 10.87664 | 230 ft | 21 kts | 225° |
| 2026-05-05 18:05 | 45.38888 | 10.87519 | 229 ft | 20 kts | 216° |
| 2026-05-05 18:05 | 45.38797 | 10.87560 | 229 ft | 14 kts | 134° |
| 2026-05-05 18:05 | 45.38771 | 10.87684 | 231 ft | 14 kts | 65° |
| 2026-05-05 18:05 | 45.38895 | 10.87872 | 231 ft | 56 kts | 45° |
| 2026-05-05 18:06 | 45.39166 | 10.88264 | 232 ft | 106 kts | 45° |
| 2026-05-05 18:06 | 45.39588 | 10.88883 | 239 ft | 148 kts | 45° |
| 2026-05-05 18:06 | 45.40693 | 10.90556 | 789 ft | 181 kts | 51° |
| 2026-05-05 18:06 | 45.41437 | 10.91942 | 1904 ft | 170 kts | 58° |
| 2026-05-05 18:07 | 45.42108 | 10.93444 | 2651 ft | 187 kts | 59° |
| 2026-05-05 18:07 | 45.42845 | 10.95139 | 2919 ft | 219 kts | 59° |
| 2026-05-05 18:07 | 45.43730 | 10.97174 | 3188 ft | 251 kts | 59° |
| 2026-05-05 18:07 | 45.44723 | 10.99443 | 3827 ft | 266 kts | 58° |
| 2026-05-05 18:08 | 45.45710 | 11.01690 | 4593 ft | 274 kts | 58° |
| 2026-05-05 18:08 | 45.46825 | 11.04224 | 5552 ft | 279 kts | 58° |
| 2026-05-05 18:08 | 45.47810 | 11.06461 | 6281 ft | 287 kts | 58° |
| 2026-05-05 18:08 | 45.48729 | 11.08552 | 6937 ft | 292 kts | 58° |
| 2026-05-05 18:09 | 45.49647 | 11.10568 | 7607 ft | 296 kts | 50° |
| 2026-05-05 18:09 | 45.50838 | 11.12010 | 8180 ft | 296 kts | 25° |
| 2026-05-05 18:09 | 45.52744 | 11.12834 | 9016 ft | 293 kts | 6° |
| 2026-05-05 18:09 | 45.55309 | 11.13187 | 10010 ft | 299 kts | 0° |
| 2026-05-05 18:10 | 45.56731 | 11.13285 | 10387 ft | 307 kts | 359° |
| 2026-05-05 18:10 | 45.58966 | 11.13410 | 10587 ft | 333 kts | 359° |
| 2026-05-05 18:10 | 45.61359 | 11.13544 | 10767 ft | 356 kts | 360° |
| 2026-05-05 18:10 | 45.63938 | 11.13706 | 11187 ft | 370 kts | 0° |
| 2026-05-05 18:11 | 45.66518 | 11.13887 | 12013 ft | 373 kts | 0° |
| 2026-05-05 18:11 | 45.69170 | 11.14078 | 12849 ft | 376 kts | 0° |
| 2026-05-05 18:11 | 45.71807 | 11.14278 | 13583 ft | 380 kts | 360° |
| 2026-05-05 18:11 | 45.74454 | 11.14481 | 14238 ft | 383 kts | 360° |
| 2026-05-05 18:12 | 45.77133 | 11.14686 | 14866 ft | 388 kts | 360° |
| 2026-05-05 18:12 | 45.79878 | 11.14896 | 15492 ft | 394 kts | 360° |
| 2026-05-05 18:12 | 45.81862 | 11.15049 | 15970 ft | 398 kts | 360° |
| 2026-05-05 18:12 | 45.85822 | 11.15352 | 16823 ft | 405 kts | 359° |
| 2026-05-05 18:13 | 45.88711 | 11.15570 | 17396 ft | 411 kts | 359° |
| 2026-05-05 18:13 | 45.91607 | 11.15788 | 18012 ft | 416 kts | 359° |
| 2026-05-05 18:13 | 45.94518 | 11.16010 | 18570 ft | 421 kts | 359° |
| 2026-05-05 18:13 | 45.97462 | 11.16239 | 19132 ft | 424 kts | 359° |
| 2026-05-05 18:14 | 46.00555 | 11.15956 | 19701 ft | 418 kts | 341° |
| 2026-05-05 18:14 | 46.03068 | 11.14464 | 20283 ft | 408 kts | 323° |
| 2026-05-05 18:14 | 46.05281 | 11.11974 | 20828 ft | 401 kts | 309° |
| 2026-05-05 18:14 | 46.06920 | 11.08773 | 21347 ft | 396 kts | 297° |
| 2026-05-05 18:15 | 46.08322 | 11.05332 | 21865 ft | 398 kts | 295° |
| 2026-05-05 18:15 | 46.09709 | 11.01795 | 22361 ft | 402 kts | 295° |
| 2026-05-05 18:15 | 46.11078 | 10.98270 | 22866 ft | 405 kts | 295° |
| 2026-05-05 18:15 | 46.12464 | 10.94711 | 23366 ft | 408 kts | 295° |
| 2026-05-05 18:16 | 46.13847 | 10.91182 | 23744 ft | 410 kts | 295° |
| 2026-05-05 18:16 | 46.15280 | 10.87545 | 24123 ft | 412 kts | 295° |
| 2026-05-05 18:16 | 46.16701 | 10.83951 | 24508 ft | 414 kts | 295° |
| 2026-05-05 18:16 | 46.18136 | 10.80325 | 24867 ft | 417 kts | 295° |
| 2026-05-05 18:17 | 46.19595 | 10.76635 | 25257 ft | 419 kts | 295° |
| 2026-05-05 18:17 | 46.21047 | 10.72962 | 25646 ft | 421 kts | 295° |
| 2026-05-05 18:17 | 46.22013 | 10.70514 | 25894 ft | 423 kts | 295° |
| 2026-05-05 18:17 | 46.23508 | 10.66727 | 26264 ft | 425 kts | 295° |
| 2026-05-05 18:18 | 46.24988 | 10.62968 | 26581 ft | 427 kts | 295° |
| 2026-05-05 18:18 | 46.26505 | 10.59110 | 26943 ft | 429 kts | 295° |
| 2026-05-05 18:18 | 46.28098 | 10.55051 | 27344 ft | 431 kts | 295° |
| 2026-05-05 18:18 | 46.29619 | 10.51170 | 27717 ft | 433 kts | 295° |
| 2026-05-05 18:19 | 46.31125 | 10.47322 | 28098 ft | 434 kts | 295° |
| 2026-05-05 18:19 | 46.32617 | 10.43507 | 28436 ft | 436 kts | 294° |
| 2026-05-05 18:19 | 46.34111 | 10.39677 | 28751 ft | 439 kts | 294° |
| 2026-05-05 18:19 | 46.35590 | 10.35881 | 29085 ft | 440 kts | 294° |
| 2026-05-05 18:20 | 46.37133 | 10.31916 | 29427 ft | 442 kts | 294° |
| 2026-05-05 18:20 | 46.38672 | 10.27954 | 29791 ft | 442 kts | 294° |
| 2026-05-05 18:20 | 46.40198 | 10.24023 | 30290 ft | 439 kts | 294° |
| 2026-05-05 18:20 | 46.41751 | 10.20014 | 30787 ft | 436 kts | 294° |
| 2026-05-05 18:21 | 46.43235 | 10.16170 | 31115 ft | 436 kts | 294° |
| 2026-05-05 18:21 | 46.44732 | 10.12288 | 31416 ft | 437 kts | 294° |
| 2026-05-05 18:21 | 46.45737 | 10.09686 | 31645 ft | 437 kts | 293° |
| 2026-05-05 18:21 | 46.47259 | 10.05781 | 32031 ft | 437 kts | 295° |
| 2026-05-05 18:22 | 46.49010 | 10.02137 | 32418 ft | 444 kts | 303° |
| 2026-05-05 18:22 | 46.51081 | 9.98691 | 32772 ft | 445 kts | 305° |
| 2026-05-05 18:22 | 46.53184 | 9.95304 | 33040 ft | 446 kts | 306° |
| 2026-05-05 18:22 | 46.55321 | 9.91881 | 33277 ft | 447 kts | 305° |
| 2026-05-05 18:23 | 46.57379 | 9.88564 | 33620 ft | 445 kts | 305° |
| 2026-05-05 18:23 | 46.59442 | 9.85212 | 33953 ft | 444 kts | 304° |
| 2026-05-05 18:23 | 46.61820 | 9.81316 | 34218 ft | 443 kts | 304° |
| 2026-05-05 18:24 | 46.66014 | 9.74390 | 34577 ft | 445 kts | 304° |
| 2026-05-05 18:24 | 46.67367 | 9.72146 | 34769 ft | 444 kts | 304° |
| 2026-05-05 18:24 | 46.69458 | 9.68676 | 35009 ft | 444 kts | 304° |
| 2026-05-05 18:24 | 46.71503 | 9.65279 | 35218 ft | 445 kts | 305° |
| 2026-05-05 18:25 | 46.73546 | 9.61882 | 35419 ft | 445 kts | 305° |
| 2026-05-05 18:25 | 46.74923 | 9.59590 | 35554 ft | 445 kts | 305° |
| 2026-05-05 18:25 | 46.77629 | 9.55080 | 35814 ft | 446 kts | 305° |
| 2026-05-05 18:25 | 46.79670 | 9.51673 | 36033 ft | 446 kts | 305° |
| 2026-05-05 18:26 | 46.81712 | 9.48263 | 36211 ft | 446 kts | 306° |
| 2026-05-05 18:26 | 46.83782 | 9.44800 | 36356 ft | 447 kts | 306° |
| 2026-05-05 18:26 | 46.85803 | 9.41414 | 36562 ft | 447 kts | 306° |
| 2026-05-05 18:26 | 46.87846 | 9.37989 | 36777 ft | 447 kts | 306° |
| 2026-05-05 18:27 | 46.89888 | 9.34561 | 36952 ft | 447 kts | 306° |
| 2026-05-05 18:27 | 46.91271 | 9.32236 | 37024 ft | 448 kts | 306° |
| 2026-05-05 18:28 | 46.96463 | 9.23489 | 37448 ft | 449 kts | 306° |
| 2026-05-05 18:28 | 46.98565 | 9.19939 | 37643 ft | 449 kts | 306° |
| 2026-05-05 18:28 | 47.00599 | 9.16499 | 37814 ft | 449 kts | 306° |
| 2026-05-05 18:29 | 47.04735 | 9.09488 | 37887 ft | 453 kts | 306° |
| 2026-05-05 18:29 | 47.08837 | 9.02518 | 37867 ft | 449 kts | 306° |
| 2026-05-05 18:30 | 47.12933 | 8.95547 | 37890 ft | 444 kts | 306° |
| 2026-05-05 18:30 | 47.16384 | 8.88261 | 37897 ft | 434 kts | 291° |
| 2026-05-05 18:31 | 47.18565 | 8.79924 | 37889 ft | 436 kts | 286° |
| 2026-05-05 18:31 | 47.20682 | 8.71270 | 37895 ft | 441 kts | 286° |
| 2026-05-05 18:32 | 47.22794 | 8.62809 | 37901 ft | 445 kts | 287° |
| 2026-05-05 18:32 | 47.24960 | 8.54192 | 37889 ft | 446 kts | 287° |
| 2026-05-05 18:33 | 47.27097 | 8.45680 | 37874 ft | 440 kts | 287° |
| 2026-05-05 18:33 | 47.29220 | 8.37251 | 37895 ft | 436 kts | 287° |
| 2026-05-05 18:34 | 47.31377 | 8.28648 | 37907 ft | 435 kts | 287° |
| 2026-05-05 18:34 | 47.33462 | 8.20327 | 37909 ft | 435 kts | 286° |
| 2026-05-05 18:35 | 47.35552 | 8.11935 | 37897 ft | 436 kts | 286° |
| 2026-05-05 18:35 | 47.37641 | 8.03502 | 37899 ft | 438 kts | 286° |
| 2026-05-05 18:36 | 47.39387 | 7.96428 | 37894 ft | 439 kts | 286° |
| 2026-05-05 18:36 | 47.41480 | 7.87914 | 37880 ft | 441 kts | 286° |
| 2026-05-05 18:37 | 47.42916 | 7.82053 | 37884 ft | 442 kts | 286° |
| 2026-05-05 18:37 | 47.44502 | 7.75554 | 37879 ft | 444 kts | 286° |
| 2026-05-05 18:38 | 47.46602 | 7.66932 | 37867 ft | 446 kts | 285° |
| 2026-05-05 18:38 | 47.48249 | 7.58126 | 37871 ft | 445 kts | 280° |
| 2026-05-05 18:39 | 47.49677 | 7.49200 | 37863 ft | 446 kts | 280° |
| 2026-05-05 18:39 | 47.51193 | 7.39760 | 37868 ft | 447 kts | 280° |
| 2026-05-05 18:40 | 47.52654 | 7.30829 | 37863 ft | 448 kts | 280° |
| 2026-05-05 18:40 | 47.54113 | 7.21943 | 37867 ft | 448 kts | 280° |
| 2026-05-05 18:41 | 47.55622 | 7.12715 | 37871 ft | 447 kts | 280° |
| 2026-05-05 18:41 | 47.56856 | 7.05123 | 37864 ft | 447 kts | 280° |
| 2026-05-05 18:42 | 47.58484 | 6.95908 | 37860 ft | 449 kts | 288° |
| 2026-05-05 18:42 | 47.61737 | 6.87702 | 37867 ft | 456 kts | 304° |
| 2026-05-05 18:43 | 47.65714 | 6.80172 | 37863 ft | 456 kts | 305° |
| 2026-05-05 18:43 | 47.69692 | 6.72631 | 37870 ft | 456 kts | 304° |
| 2026-05-05 18:44 | 47.73684 | 6.64937 | 37870 ft | 456 kts | 304° |
| 2026-05-05 18:44 | 47.77582 | 6.57347 | 37858 ft | 456 kts | 304° |
| 2026-05-05 18:45 | 47.81476 | 6.49730 | 37864 ft | 457 kts | 304° |
| 2026-05-05 18:45 | 47.85343 | 6.42147 | 37861 ft | 457 kts | 304° |
| 2026-05-05 18:46 | 47.88210 | 6.36513 | 37863 ft | 457 kts | 304° |
| 2026-05-05 18:46 | 47.91937 | 6.29172 | 37864 ft | 457 kts | 304° |
| 2026-05-05 18:47 | 47.95713 | 6.21716 | 37855 ft | 458 kts | 304° |
| 2026-05-05 18:47 | 47.99617 | 6.13984 | 37863 ft | 458 kts | 304° |
| 2026-05-05 18:48 | 48.03497 | 6.06280 | 37838 ft | 458 kts | 304° |
| 2026-05-05 18:48 | 48.07410 | 5.98488 | 37840 ft | 458 kts | 304° |
| 2026-05-05 18:49 | 48.11138 | 5.91042 | 37835 ft | 458 kts | 304° |
| 2026-05-05 18:49 | 48.15056 | 5.83195 | 37835 ft | 458 kts | 304° |
| 2026-05-05 18:50 | 48.18938 | 5.75397 | 37831 ft | 459 kts | 304° |
| 2026-05-05 18:50 | 48.22078 | 5.69073 | 37835 ft | 459 kts | 304° |
| 2026-05-05 18:51 | 48.30302 | 5.52440 | 37827 ft | 459 kts | 304° |
| 2026-05-05 18:52 | 48.33592 | 5.45759 | 37823 ft | 459 kts | 304° |
| 2026-05-05 18:52 | 48.36946 | 5.38930 | 37825 ft | 459 kts | 304° |
| 2026-05-05 18:53 | 48.40746 | 5.31172 | 37825 ft | 459 kts | 304° |
| 2026-05-05 18:53 | 48.44620 | 5.23239 | 37818 ft | 459 kts | 304° |
| 2026-05-05 18:54 | 48.48231 | 5.15824 | 37814 ft | 459 kts | 304° |
| 2026-05-05 18:54 | 48.51613 | 5.08860 | 37805 ft | 460 kts | 304° |
| 2026-05-05 18:55 | 48.55321 | 5.01206 | 37809 ft | 459 kts | 304° |
| 2026-05-05 18:55 | 48.59176 | 4.93224 | 37799 ft | 459 kts | 304° |
| 2026-05-05 18:56 | 48.62382 | 4.86567 | 37807 ft | 459 kts | 304° |
| 2026-05-05 18:56 | 48.66280 | 4.78452 | 37801 ft | 459 kts | 304° |
| 2026-05-05 18:57 | 48.70097 | 4.70484 | 37805 ft | 459 kts | 304° |
| 2026-05-05 18:57 | 48.73175 | 4.64040 | 37801 ft | 459 kts | 304° |
| 2026-05-05 18:58 | 48.77660 | 4.54622 | 37799 ft | 459 kts | 304° |
| 2026-05-05 18:58 | 48.81515 | 4.46501 | 37800 ft | 459 kts | 304° |
| 2026-05-05 18:59 | 48.85212 | 4.38689 | 37802 ft | 459 kts | 304° |
| 2026-05-05 18:59 | 48.89053 | 4.30549 | 37803 ft | 459 kts | 304° |
| 2026-05-05 19:00 | 48.92742 | 4.22708 | 37799 ft | 459 kts | 304° |
| 2026-05-05 19:00 | 48.96462 | 4.14779 | 37801 ft | 459 kts | 304° |
| 2026-05-05 19:01 | 49.00228 | 4.06728 | 37799 ft | 460 kts | 304° |
| 2026-05-05 19:01 | 49.03411 | 3.99902 | 37797 ft | 460 kts | 304° |
| 2026-05-05 19:02 | 49.07112 | 3.91946 | 37800 ft | 461 kts | 304° |
| 2026-05-05 19:02 | 49.10836 | 3.83916 | 37799 ft | 461 kts | 304° |
| 2026-05-05 19:03 | 49.14757 | 3.75435 | 37806 ft | 462 kts | 304° |
| 2026-05-05 19:03 | 49.18533 | 3.67242 | 37795 ft | 463 kts | 304° |
| 2026-05-05 19:04 | 49.22193 | 3.59277 | 37797 ft | 463 kts | 304° |
| 2026-05-05 19:04 | 49.25623 | 3.51790 | 37807 ft | 463 kts | 304° |
| 2026-05-05 19:05 | 49.29296 | 3.43751 | 37811 ft | 464 kts | 303° |
| 2026-05-05 19:05 | 49.32903 | 3.35831 | 37818 ft | 464 kts | 303° |
| 2026-05-05 19:06 | 49.36580 | 3.27734 | 37812 ft | 465 kts | 303° |
| 2026-05-05 19:06 | 49.40371 | 3.19360 | 37818 ft | 464 kts | 303° |
| 2026-05-05 19:07 | 49.43531 | 3.12360 | 37823 ft | 464 kts | 303° |
| 2026-05-05 19:07 | 49.47780 | 3.02918 | 37820 ft | 464 kts | 303° |
| 2026-05-05 19:08 | 49.51475 | 2.94680 | 37827 ft | 463 kts | 303° |
| 2026-05-05 19:08 | 49.54529 | 2.87851 | 37830 ft | 463 kts | 303° |
| 2026-05-05 19:09 | 49.58798 | 2.78277 | 37831 ft | 462 kts | 303° |
| 2026-05-05 19:09 | 49.61885 | 2.71331 | 37833 ft | 462 kts | 303° |
| 2026-05-05 19:10 | 49.65738 | 2.62637 | 37841 ft | 462 kts | 303° |
| 2026-05-05 19:10 | 49.69419 | 2.54306 | 37852 ft | 461 kts | 303° |
| 2026-05-05 19:11 | 49.73020 | 2.46126 | 37855 ft | 461 kts | 303° |
| 2026-05-05 19:11 | 49.76745 | 2.37642 | 37854 ft | 461 kts | 303° |
| 2026-05-05 19:12 | 49.82182 | 2.25206 | 37866 ft | 461 kts | 303° |
| 2026-05-05 19:13 | 49.85297 | 2.18055 | 37852 ft | 455 kts | 303° |
| 2026-05-05 19:13 | 49.87096 | 2.13917 | 37837 ft | 439 kts | 303° |
| 2026-05-05 19:13 | 49.88424 | 2.10859 | 37846 ft | 428 kts | 302° |
| 2026-05-05 19:14 | 49.91423 | 2.03935 | 37616 ft | 417 kts | 302° |
| 2026-05-05 19:14 | 49.93117 | 2.00010 | 37016 ft | 417 kts | 302° |
| 2026-05-05 19:14 | 49.94777 | 1.96162 | 36365 ft | 421 kts | 303° |
| 2026-05-05 19:15 | 49.96354 | 1.92498 | 35871 ft | 421 kts | 303° |
| 2026-05-05 19:15 | 49.97882 | 1.88948 | 35533 ft | 418 kts | 303° |
| 2026-05-05 19:15 | 49.99554 | 1.85056 | 35198 ft | 414 kts | 303° |
| 2026-05-05 19:15 | 50.01140 | 1.81358 | 34701 ft | 415 kts | 303° |
| 2026-05-05 19:16 | 50.04215 | 1.74179 | 32466 ft | 438 kts | 304° |
| 2026-05-05 19:16 | 50.05351 | 1.71526 | 31478 ft | 447 kts | 304° |
| 2026-05-05 19:16 | 50.07212 | 1.67530 | 30382 ft | 451 kts | 311° |
| 2026-05-05 19:17 | 50.08661 | 1.65105 | 29847 ft | 446 kts | 318° |
| 2026-05-05 19:17 | 50.10996 | 1.61884 | 29117 ft | 436 kts | 321° |
| 2026-05-05 19:17 | 50.13385 | 1.58719 | 28451 ft | 426 kts | 321° |
| 2026-05-05 19:17 | 50.15719 | 1.55639 | 27890 ft | 414 kts | 321° |
| 2026-05-05 19:18 | 50.18154 | 1.52399 | 27380 ft | 401 kts | 320° |
| 2026-05-05 19:18 | 50.20270 | 1.49554 | 26901 ft | 392 kts | 320° |
| 2026-05-05 19:18 | 50.22388 | 1.46685 | 26432 ft | 383 kts | 319° |
| 2026-05-05 19:18 | 50.24243 | 1.44159 | 26048 ft | 382 kts | 319° |
| 2026-05-05 19:19 | 50.26353 | 1.41279 | 25628 ft | 398 kts | 319° |
| 2026-05-05 19:19 | 50.27787 | 1.39318 | 25318 ft | 410 kts | 319° |
| 2026-05-05 19:19 | 50.30012 | 1.36273 | 24792 ft | 410 kts | 319° |
| 2026-05-05 19:19 | 50.32129 | 1.33371 | 24334 ft | 407 kts | 319° |
| 2026-05-05 19:20 | 50.34283 | 1.30412 | 23846 ft | 405 kts | 319° |
| 2026-05-05 19:20 | 50.36448 | 1.27435 | 23337 ft | 402 kts | 319° |
| 2026-05-05 19:20 | 50.38543 | 1.24550 | 22821 ft | 400 kts | 319° |
| 2026-05-05 19:20 | 50.40624 | 1.21680 | 22325 ft | 396 kts | 319° |
| 2026-05-05 19:21 | 50.42680 | 1.18840 | 21860 ft | 392 kts | 319° |
| 2026-05-05 19:21 | 50.44746 | 1.15981 | 21390 ft | 388 kts | 320° |
| 2026-05-05 19:21 | 50.46757 | 1.13195 | 20948 ft | 385 kts | 320° |
| 2026-05-05 19:21 | 50.48759 | 1.10424 | 20507 ft | 381 kts | 320° |
| 2026-05-05 19:22 | 50.50772 | 1.07638 | 20060 ft | 378 kts | 320° |
| 2026-05-05 19:22 | 50.52688 | 1.04850 | 19622 ft | 375 kts | 316° |
| 2026-05-05 19:22 | 50.54474 | 1.01891 | 19194 ft | 373 kts | 314° |
| 2026-05-05 19:22 | 50.56211 | 0.98879 | 18765 ft | 370 kts | 314° |
| 2026-05-05 19:23 | 50.57929 | 0.95888 | 18342 ft | 368 kts | 314° |
| 2026-05-05 19:23 | 50.59652 | 0.92913 | 17868 ft | 366 kts | 314° |
| 2026-05-05 19:23 | 50.61367 | 0.89976 | 17394 ft | 363 kts | 314° |
| 2026-05-05 19:23 | 50.63072 | 0.87072 | 16955 ft | 360 kts | 314° |
| 2026-05-05 19:24 | 50.64769 | 0.84191 | 16520 ft | 357 kts | 314° |
| 2026-05-05 19:24 | 50.66454 | 0.81331 | 16116 ft | 354 kts | 314° |
| 2026-05-05 19:24 | 50.68107 | 0.78456 | 15961 ft | 356 kts | 312° |
| 2026-05-05 19:24 | 50.69673 | 0.75467 | 15918 ft | 348 kts | 310° |
| 2026-05-05 19:25 | 50.71148 | 0.72542 | 15905 ft | 334 kts | 310° |
| 2026-05-05 19:25 | 50.72559 | 0.69727 | 15906 ft | 320 kts | 310° |
| 2026-05-05 19:25 | 50.73910 | 0.67040 | 15909 ft | 306 kts | 310° |
| 2026-05-05 19:25 | 50.75209 | 0.64467 | 15909 ft | 293 kts | 310° |
| 2026-05-05 19:26 | 50.76461 | 0.61993 | 15911 ft | 280 kts | 310° |
| 2026-05-05 19:26 | 50.77646 | 0.59655 | 15907 ft | 268 kts | 310° |
| 2026-05-05 19:26 | 50.78791 | 0.57399 | 15718 ft | 261 kts | 310° |
| 2026-05-05 19:26 | 50.79958 | 0.55106 | 14851 ft | 278 kts | 310° |
| 2026-05-05 19:27 | 50.81227 | 0.52614 | 13779 ft | 302 kts | 311° |
| 2026-05-05 19:27 | 50.82101 | 0.50894 | 13211 ft | 309 kts | 310° |
| 2026-05-05 19:27 | 50.82825 | 0.49466 | 12917 ft | 308 kts | 310° |
| 2026-05-05 19:28 | 50.84146 | 0.46858 | 12523 ft | 301 kts | 310° |
| 2026-05-05 19:28 | 50.85447 | 0.44297 | 12235 ft | 291 kts | 313° |
| 2026-05-05 19:28 | 50.86575 | 0.41757 | 11858 ft | 286 kts | 293° |
| 2026-05-05 19:28 | 50.87140 | 0.38755 | 11475 ft | 282 kts | 287° |
| 2026-05-05 19:29 | 50.87633 | 0.35733 | 11024 ft | 280 kts | 287° |
| 2026-05-05 19:29 | 50.88118 | 0.32725 | 10566 ft | 278 kts | 286° |
| 2026-05-05 19:29 | 50.88588 | 0.29798 | 10158 ft | 275 kts | 286° |
| 2026-05-05 19:29 | 50.89055 | 0.26877 | 9746 ft | 272 kts | 286° |
| 2026-05-05 19:30 | 50.89514 | 0.23995 | 9333 ft | 268 kts | 286° |
| 2026-05-05 19:30 | 50.89964 | 0.21143 | 8927 ft | 266 kts | 286° |
| 2026-05-05 19:30 | 50.90404 | 0.18328 | 8672 ft | 256 kts | 286° |
| 2026-05-05 19:30 | 50.90827 | 0.15589 | 8270 ft | 252 kts | 286° |
| 2026-05-05 19:31 | 50.91247 | 0.12855 | 7998 ft | 254 kts | 286° |
| 2026-05-05 19:31 | 50.91655 | 0.10179 | 7860 ft | 252 kts | 286° |
| 2026-05-05 19:31 | 50.92060 | 0.07509 | 7546 ft | 249 kts | 286° |
| 2026-05-05 19:31 | 50.92460 | 0.04829 | 7081 ft | 250 kts | 286° |
| 2026-05-05 19:32 | 50.92862 | 0.02101 | 6647 ft | 249 kts | 286° |
| 2026-05-05 19:32 | 50.93252 | -0.00591 | 6260 ft | 247 kts | 286° |
| 2026-05-05 19:32 | 50.93620 | -0.03189 | 5870 ft | 246 kts | 286° |
| 2026-05-05 19:32 | 50.93877 | -0.05010 | 5592 ft | 245 kts | 286° |
| 2026-05-05 19:33 | 50.94375 | -0.08533 | 5024 ft | 244 kts | 286° |
| 2026-05-05 19:33 | 50.94741 | -0.11147 | 4629 ft | 243 kts | 286° |
| 2026-05-05 19:33 | 50.94983 | -0.12881 | 4347 ft | 242 kts | 286° |
| 2026-05-05 19:33 | 50.95354 | -0.15522 | 3916 ft | 242 kts | 286° |
| 2026-05-05 19:34 | 50.95725 | -0.18129 | 3507 ft | 241 kts | 286° |
| 2026-05-05 19:34 | 50.96106 | -0.20770 | 3185 ft | 243 kts | 286° |
| 2026-05-05 19:34 | 50.96486 | -0.23369 | 3036 ft | 242 kts | 286° |
| 2026-05-05 19:35 | 50.97259 | -0.28554 | 3001 ft | 240 kts | 286° |
| 2026-05-05 19:35 | 50.97648 | -0.31131 | 2990 ft | 239 kts | 286° |
| 2026-05-05 19:35 | 50.98042 | -0.33731 | 2997 ft | 241 kts | 286° |
| 2026-05-05 19:35 | 50.98440 | -0.36324 | 3003 ft | 242 kts | 286° |
| 2026-05-05 19:36 | 50.98840 | -0.38924 | 2996 ft | 243 kts | 286° |
| 2026-05-05 19:36 | 50.99244 | -0.41540 | 3002 ft | 244 kts | 286° |
| 2026-05-05 19:36 | 50.99651 | -0.44159 | 2990 ft | 244 kts | 286° |
| 2026-05-05 19:36 | 51.00057 | -0.46778 | 2989 ft | 243 kts | 286° |
| 2026-05-05 19:37 | 51.00609 | -0.49343 | 2978 ft | 238 kts | 307° |
| 2026-05-05 19:37 | 51.01890 | -0.50908 | 2998 ft | 232 kts | 342° |
| 2026-05-05 19:37 | 51.03470 | -0.51647 | 2994 ft | 232 kts | 346° |
| 2026-05-05 19:37 | 51.05066 | -0.52359 | 2995 ft | 233 kts | 346° |
| 2026-05-05 19:38 | 51.06597 | -0.53035 | 2991 ft | 233 kts | 346° |
| 2026-05-05 19:38 | 51.08072 | -0.53622 | 2991 ft | 233 kts | 355° |
| 2026-05-05 19:38 | 51.09596 | -0.53103 | 2999 ft | 230 kts | 34° |
| 2026-05-05 19:38 | 51.10576 | -0.51095 | 2994 ft | 232 kts | 73° |
| 2026-05-05 19:39 | 51.10808 | -0.48558 | 3001 ft | 233 kts | 81° |
| 2026-05-05 19:39 | 51.11108 | -0.46010 | 3004 ft | 234 kts | 77° |
| 2026-05-05 19:39 | 51.11462 | -0.43464 | 2996 ft | 234 kts | 76° |
| 2026-05-05 19:39 | 51.11810 | -0.40940 | 2737 ft | 227 kts | 77° |
| 2026-05-05 19:40 | 51.12132 | -0.38571 | 2468 ft | 211 kts | 77° |
| 2026-05-05 19:40 | 51.12437 | -0.36340 | 2191 ft | 197 kts | 77° |
| 2026-05-05 19:40 | 51.12717 | -0.34285 | 1936 ft | 183 kts | 78° |
| 2026-05-05 19:40 | 51.12978 | -0.32379 | 1729 ft | 166 kts | 78° |
| 2026-05-05 19:41 | 51.13211 | -0.30681 | 1477 ft | 148 kts | 78° |
| 2026-05-05 19:41 | 51.13419 | -0.29170 | 1315 ft | 135 kts | 78° |
| 2026-05-05 19:41 | 51.13626 | -0.27658 | 1113 ft | 132 kts | 78° |
| 2026-05-05 19:41 | 51.13806 | -0.26295 | 916 ft | 129 kts | 78° |
| 2026-05-05 19:42 | 51.13997 | -0.24892 | 743 ft | 131 kts | 77° |
| 2026-05-05 19:42 | 51.14201 | -0.23419 | 601 ft | 132 kts | 79° |
| 2026-05-05 19:42 | 51.14395 | -0.22032 | 407 ft | 132 kts | 78° |
| 2026-05-05 19:42 | 51.14599 | -0.20581 | 249 ft | 129 kts | 78° |
| 2026-05-05 19:43 | 51.14776 | -0.19268 | 203 ft | 102 kts | 80° |
| 2026-05-05 19:43 | 51.14902 | -0.18386 | 213 ft | 59 kts | 77° |
| 2026-05-05 19:43 | 51.14979 | -0.17969 | 207 ft | 33 kts | 63° |
| 2026-05-05 19:43 | 51.15060 | -0.17769 | 210 ft | 30 kts | 49° |
| 2026-05-05 19:44 | 51.15155 | -0.17761 | 204 ft | 0 kts | 349° |
| 2026-05-05 19:45 | 51.15156 | -0.17761 | 204 ft | 3 kts | 349° |
| 2026-05-05 19:45 | 51.15244 | -0.17763 | 204 ft | 18 kts | 22° |
| 2026-05-05 19:45 | 51.15277 | -0.17605 | 202 ft | 17 kts | 91° |
| 2026-05-05 19:46 | 51.15296 | -0.17466 | 206 ft | 14 kts | 77° |
| 2026-05-05 19:46 | 51.15371 | -0.17376 | 211 ft | 16 kts | 4° |
| 2026-05-05 19:46 | 51.15487 | -0.17417 | 205 ft | 18 kts | 347° |
| 2026-05-05 19:46 | 51.15620 | -0.17465 | 202 ft | 21 kts | 349° |
| 2026-05-05 19:47 | 51.15754 | -0.17482 | 205 ft | 12 kts | 36° |
| 2026-05-05 19:47 | 51.15780 | -0.17344 | 207 ft | 12 kts | 80° |
| 2026-05-05 19:47 | 51.15799 | -0.17222 | 207 ft | 12 kts | 75° |
| 2026-05-05 19:47 | 51.15829 | -0.17105 | 210 ft | 12 kts | 41° |
| 2026-05-05 19:48 | 51.15882 | -0.17091 | 202 ft | 7 kts | 331° |
| 2026-05-05 19:48 | 51.15914 | -0.17133 | 210 ft | 2 kts | 316° |
| 2026-05-05 19:48 | 51.15923 | -0.17146 | 211 ft | 2 kts | 316° |
| 2026-05-05 19:48 | 51.15929 | -0.17156 | 202 ft | 0 kts | 315° |